sensor_id;sensor_type;location;lat;lon;timestamp;temperature;humidity
20568;DHT22;10442;49.932;11.592;2023-12-29T00:02:24;12.00;76.80
20568;DHT22;10442;49.932;11.592;2023-12-29T00:04:53;12.00;76.90
20568;DHT22;10442;49.932;11.592;2023-12-29T00:07:22;11.90;76.80
20568;DHT22;10442;49.932;11.592;2023-12-29T00:09:50;12.00;76.80
20568;DHT22;10442;49.932;11.592;2023-12-29T00:12:17;12.00;77.60
20568;DHT22;10442;49.932;11.592;2023-12-29T00:14:45;11.90;76.70
20568;DHT22;10442;49.932;11.592;2023-12-29T00:17:12;11.90;76.60
20568;DHT22;10442;49.932;11.592;2023-12-29T00:19:41;11.90;76.60
20568;DHT22;10442;49.932;11.592;2023-12-29T00:22:08;11.90;76.40
20568;DHT22;10442;49.932;11.592;2023-12-29T00:24:36;11.90;76.40
20568;DHT22;10442;49.932;11.592;2023-12-29T00:27:04;11.90;76.20
20568;DHT22;10442;49.932;11.592;2023-12-29T00:29:33;11.90;76.10
20568;DHT22;10442;49.932;11.592;2023-12-29T00:32:03;11.90;76.00
20568;DHT22;10442;49.932;11.592;2023-12-29T00:34:32;12.00;76.00
20568;DHT22;10442;49.932;11.592;2023-12-29T00:37:01;12.00;75.80
20568;DHT22;10442;49.932;11.592;2023-12-29T00:39:30;12.00;75.50
20568;DHT22;10442;49.932;11.592;2023-12-29T00:41:59;12.00;75.40
20568;DHT22;10442;49.932;11.592;2023-12-29T00:44:27;12.00;75.40
20568;DHT22;10442;49.932;11.592;2023-12-29T00:46:55;12.00;75.40
20568;DHT22;10442;49.932;11.592;2023-12-29T00:49:22;12.00;75.40
20568;DHT22;10442;49.932;11.592;2023-12-29T00:51:51;12.00;75.30
20568;DHT22;10442;49.932;11.592;2023-12-29T00:54:19;12.00;75.40
20568;DHT22;10442;49.932;11.592;2023-12-29T00:56:51;12.00;75.20
20568;DHT22;10442;49.932;11.592;2023-12-29T00:59:19;12.10;75.20
20568;DHT22;10442;49.932;11.592;2023-12-29T01:01:49;12.10;75.10
20568;DHT22;10442;49.932;11.592;2023-12-29T01:04:17;12.10;74.80
20568;DHT22;10442;49.932;11.592;2023-12-29T01:06:45;12.10;74.90
20568;DHT22;10442;49.932;11.592;2023-12-29T01:09:12;12.10;75.00
20568;DHT22;10442;49.932;11.592;2023-12-29T01:11:40;12.10;74.90
20568;DHT22;10442;49.932;11.592;2023-12-29T01:14:07;12.10;74.90
20568;DHT22;10442;49.932;11.592;2023-12-29T01:16:35;12.10;74.80
20568;DHT22;10442;49.932;11.592;2023-12-29T01:19:04;12.10;74.80
20568;DHT22;10442;49.932;11.592;2023-12-29T01:21:32;12.20;74.80
20568;DHT22;10442;49.932;11.592;2023-12-29T01:24:01;12.10;74.80
20568;DHT22;10442;49.932;11.592;2023-12-29T01:26:31;12.10;74.70
20568;DHT22;10442;49.932;11.592;2023-12-29T01:28:58;12.10;74.50
20568;DHT22;10442;49.932;11.592;2023-12-29T01:31:29;12.10;74.40
20568;DHT22;10442;49.932;11.592;2023-12-29T01:33:58;12.10;74.20
20568;DHT22;10442;49.932;11.592;2023-12-29T01:36:28;12.10;74.40
20568;DHT22;10442;49.932;11.592;2023-12-29T01:38:56;12.00;74.30
20568;DHT22;10442;49.932;11.592;2023-12-29T01:41:23;12.00;74.30
20568;DHT22;10442;49.932;11.592;2023-12-29T01:46:33;12.00;74.30
20568;DHT22;10442;49.932;11.592;2023-12-29T01:49:01;12.00;74.00
20568;DHT22;10442;49.932;11.592;2023-12-29T01:51:29;12.00;74.00
20568;DHT22;10442;49.932;11.592;2023-12-29T01:53:58;12.10;74.10
20568;DHT22;10442;49.932;11.592;2023-12-29T01:56:26;12.10;74.10
20568;DHT22;10442;49.932;11.592;2023-12-29T01:58:55;12.10;74.00
20568;DHT22;10442;49.932;11.592;2023-12-29T02:01:36;12.10;73.80
20568;DHT22;10442;49.932;11.592;2023-12-29T02:04:08;12.10;73.80
20568;DHT22;10442;49.932;11.592;2023-12-29T02:06:37;12.10;73.50
20568;DHT22;10442;49.932;11.592;2023-12-29T02:09:06;12.10;73.60
20568;DHT22;10442;49.932;11.592;2023-12-29T02:11:34;12.10;74.20
20568;DHT22;10442;49.932;11.592;2023-12-29T02:14:03;12.10;73.40
20568;DHT22;10442;49.932;11.592;2023-12-29T02:16:40;12.10;73.30
20568;DHT22;10442;49.932;11.592;2023-12-29T02:19:36;12.20;73.20
20568;DHT22;10442;49.932;11.592;2023-12-29T02:22:04;12.20;73.20
20568;DHT22;10442;49.932;11.592;2023-12-29T02:24:34;12.20;73.20
20568;DHT22;10442;49.932;11.592;2023-12-29T02:27:43;12.20;73.10
20568;DHT22;10442;49.932;11.592;2023-12-29T02:32:59;12.20;73.10
20568;DHT22;10442;49.932;11.592;2023-12-29T02:35:31;12.20;73.90
20568;DHT22;10442;49.932;11.592;2023-12-29T02:38:00;12.20;73.30
20568;DHT22;10442;49.932;11.592;2023-12-29T02:40:30;12.20;73.40
20568;DHT22;10442;49.932;11.592;2023-12-29T02:42:57;12.20;73.40
20568;DHT22;10442;49.932;11.592;2023-12-29T02:45:25;12.20;73.50
20568;DHT22;10442;49.932;11.592;2023-12-29T02:47:53;12.20;73.50
20568;DHT22;10442;49.932;11.592;2023-12-29T02:50:23;12.10;73.60
20568;DHT22;10442;49.932;11.592;2023-12-29T02:52:51;12.10;73.60
20568;DHT22;10442;49.932;11.592;2023-12-29T02:55:18;12.10;73.70
20568;DHT22;10442;49.932;11.592;2023-12-29T02:57:47;12.00;73.80
20568;DHT22;10442;49.932;11.592;2023-12-29T03:00:15;12.00;73.90
20568;DHT22;10442;49.932;11.592;2023-12-29T03:02:43;11.90;74.00
20568;DHT22;10442;49.932;11.592;2023-12-29T03:05:12;11.90;74.00
20568;DHT22;10442;49.932;11.592;2023-12-29T03:07:39;11.90;74.00
20568;DHT22;10442;49.932;11.592;2023-12-29T03:10:08;11.90;74.20
20568;DHT22;10442;49.932;11.592;2023-12-29T03:12:36;11.90;74.10
20568;DHT22;10442;49.932;11.592;2023-12-29T03:15:04;11.90;74.00
20568;DHT22;10442;49.932;11.592;2023-12-29T03:17:31;11.80;74.10
20568;DHT22;10442;49.932;11.592;2023-12-29T03:19:59;11.80;74.10
20568;DHT22;10442;49.932;11.592;2023-12-29T03:22:27;11.80;74.10
20568;DHT22;10442;49.932;11.592;2023-12-29T03:24:55;11.80;74.30
20568;DHT22;10442;49.932;11.592;2023-12-29T03:27:24;11.90;74.40
20568;DHT22;10442;49.932;11.592;2023-12-29T03:29:52;11.90;74.50
20568;DHT22;10442;49.932;11.592;2023-12-29T03:32:21;11.90;74.40
20568;DHT22;10442;49.932;11.592;2023-12-29T03:34:48;11.90;74.40
20568;DHT22;10442;49.932;11.592;2023-12-29T03:37:16;11.90;74.30
20568;DHT22;10442;49.932;11.592;2023-12-29T03:39:45;11.90;74.30
20568;DHT22;10442;49.932;11.592;2023-12-29T03:42:13;11.90;74.10
20568;DHT22;10442;49.932;11.592;2023-12-29T03:44:41;12.00;74.10
20568;DHT22;10442;49.932;11.592;2023-12-29T03:47:09;12.00;74.00
20568;DHT22;10442;49.932;11.592;2023-12-29T03:49:37;12.00;73.90
20568;DHT22;10442;49.932;11.592;2023-12-29T03:52:05;11.90;73.70
20568;DHT22;10442;49.932;11.592;2023-12-29T03:54:33;11.90;73.50
20568;DHT22;10442;49.932;11.592;2023-12-29T03:57:01;11.90;73.50
20568;DHT22;10442;49.932;11.592;2023-12-29T03:59:29;11.90;73.60
20568;DHT22;10442;49.932;11.592;2023-12-29T04:01:57;12.00;73.60
20568;DHT22;10442;49.932;11.592;2023-12-29T04:04:25;12.00;73.40
20568;DHT22;10442;49.932;11.592;2023-12-29T04:06:53;12.00;73.50
20568;DHT22;10442;49.932;11.592;2023-12-29T04:09:23;12.00;73.50
20568;DHT22;10442;49.932;11.592;2023-12-29T04:11:50;12.00;73.50
20568;DHT22;10442;49.932;11.592;2023-12-29T04:14:17;12.00;73.40
20568;DHT22;10442;49.932;11.592;2023-12-29T04:16:46;12.00;73.50
20568;DHT22;10442;49.932;11.592;2023-12-29T04:19:14;12.00;73.50
20568;DHT22;10442;49.932;11.592;2023-12-29T04:21:42;12.00;73.30
20568;DHT22;10442;49.932;11.592;2023-12-29T04:24:10;12.00;73.00
20568;DHT22;10442;49.932;11.592;2023-12-29T04:26:38;11.90;72.80
20568;DHT22;10442;49.932;11.592;2023-12-29T04:29:05;11.90;72.60
20568;DHT22;10442;49.932;11.592;2023-12-29T04:31:34;11.90;72.60
20568;DHT22;10442;49.932;11.592;2023-12-29T04:34:02;11.90;72.70
20568;DHT22;10442;49.932;11.592;2023-12-29T04:36:31;11.90;72.70
20568;DHT22;10442;49.932;11.592;2023-12-29T04:38:58;11.90;72.80
20568;DHT22;10442;49.932;11.592;2023-12-29T04:41:26;11.90;72.70
20568;DHT22;10442;49.932;11.592;2023-12-29T04:43:54;11.90;72.70
20568;DHT22;10442;49.932;11.592;2023-12-29T04:46:22;11.90;72.60
20568;DHT22;10442;49.932;11.592;2023-12-29T04:48:50;11.90;72.50
20568;DHT22;10442;49.932;11.592;2023-12-29T04:51:18;11.90;72.30
20568;DHT22;10442;49.932;11.592;2023-12-29T04:53:46;11.90;72.20
20568;DHT22;10442;49.932;11.592;2023-12-29T04:56:13;11.80;71.90
20568;DHT22;10442;49.932;11.592;2023-12-29T04:58:41;11.80;72.00
20568;DHT22;10442;49.932;11.592;2023-12-29T05:01:09;11.80;72.10
20568;DHT22;10442;49.932;11.592;2023-12-29T05:03:37;11.80;72.10
20568;DHT22;10442;49.932;11.592;2023-12-29T05:06:04;11.80;72.10
20568;DHT22;10442;49.932;11.592;2023-12-29T05:08:31;11.80;72.10
20568;DHT22;10442;49.932;11.592;2023-12-29T05:10:59;11.80;72.00
20568;DHT22;10442;49.932;11.592;2023-12-29T05:13:28;11.80;71.70
20568;DHT22;10442;49.932;11.592;2023-12-29T05:15:57;11.70;71.50
20568;DHT22;10442;49.932;11.592;2023-12-29T05:18:24;11.70;71.50
20568;DHT22;10442;49.932;11.592;2023-12-29T05:20:54;11.70;71.20
20568;DHT22;10442;49.932;11.592;2023-12-29T05:23:23;11.70;70.90
20568;DHT22;10442;49.932;11.592;2023-12-29T05:25:51;11.70;71.00
20568;DHT22;10442;49.932;11.592;2023-12-29T05:28:20;11.70;70.80
20568;DHT22;10442;49.932;11.592;2023-12-29T05:30:47;11.70;70.80
20568;DHT22;10442;49.932;11.592;2023-12-29T05:33:15;11.70;70.80
20568;DHT22;10442;49.932;11.592;2023-12-29T05:35:43;11.70;70.60
20568;DHT22;10442;49.932;11.592;2023-12-29T05:38:11;11.70;70.70
20568;DHT22;10442;49.932;11.592;2023-12-29T05:40:39;11.70;70.50
20568;DHT22;10442;49.932;11.592;2023-12-29T05:43:07;11.70;70.30
20568;DHT22;10442;49.932;11.592;2023-12-29T05:45:34;11.70;70.10
20568;DHT22;10442;49.932;11.592;2023-12-29T05:48:02;11.70;70.20
20568;DHT22;10442;49.932;11.592;2023-12-29T05:50:30;11.70;70.10
20568;DHT22;10442;49.932;11.592;2023-12-29T05:52:58;11.70;69.90
20568;DHT22;10442;49.932;11.592;2023-12-29T05:55:27;11.60;69.60
20568;DHT22;10442;49.932;11.592;2023-12-29T05:57:54;11.60;69.80
20568;DHT22;10442;49.932;11.592;2023-12-29T06:00:24;11.60;69.60
20568;DHT22;10442;49.932;11.592;2023-12-29T06:02:52;11.60;69.30
20568;DHT22;10442;49.932;11.592;2023-12-29T06:05:20;11.50;69.50
20568;DHT22;10442;49.932;11.592;2023-12-29T06:07:48;11.50;69.60
20568;DHT22;10442;49.932;11.592;2023-12-29T06:10:16;11.50;69.50
20568;DHT22;10442;49.932;11.592;2023-12-29T06:12:45;11.40;69.40
20568;DHT22;10442;49.932;11.592;2023-12-29T06:15:13;11.40;69.40
20568;DHT22;10442;49.932;11.592;2023-12-29T06:17:45;11.40;69.60
20568;DHT22;10442;49.932;11.592;2023-12-29T06:20:13;11.30;69.60
20568;DHT22;10442;49.932;11.592;2023-12-29T06:22:42;11.30;69.80
20568;DHT22;10442;49.932;11.592;2023-12-29T06:25:10;11.20;69.80
20568;DHT22;10442;49.932;11.592;2023-12-29T06:27:39;11.20;69.90
20568;DHT22;10442;49.932;11.592;2023-12-29T06:30:08;11.20;70.70
20568;DHT22;10442;49.932;11.592;2023-12-29T06:32:36;11.10;70.10
20568;DHT22;10442;49.932;11.592;2023-12-29T06:35:04;11.10;70.30
20568;DHT22;10442;49.932;11.592;2023-12-29T06:37:33;11.00;70.20
20568;DHT22;10442;49.932;11.592;2023-12-29T06:40:00;11.00;70.40
20568;DHT22;10442;49.932;11.592;2023-12-29T06:42:29;11.00;70.60
20568;DHT22;10442;49.932;11.592;2023-12-29T06:44:57;11.00;70.70
20568;DHT22;10442;49.932;11.592;2023-12-29T06:47:26;10.90;70.70
20568;DHT22;10442;49.932;11.592;2023-12-29T06:49:54;10.90;70.80
20568;DHT22;10442;49.932;11.592;2023-12-29T06:52:22;10.90;70.90
20568;DHT22;10442;49.932;11.592;2023-12-29T06:54:51;10.80;70.90
20568;DHT22;10442;49.932;11.592;2023-12-29T06:57:19;10.80;71.10
20568;DHT22;10442;49.932;11.592;2023-12-29T06:59:47;10.70;71.30
20568;DHT22;10442;49.932;11.592;2023-12-29T07:02:15;10.70;71.50
20568;DHT22;10442;49.932;11.592;2023-12-29T07:04:44;10.70;71.80
20568;DHT22;10442;49.932;11.592;2023-12-29T07:07:12;10.60;72.00
20568;DHT22;10442;49.932;11.592;2023-12-29T07:09:40;10.60;72.10
20568;DHT22;10442;49.932;11.592;2023-12-29T07:12:09;10.60;72.40
20568;DHT22;10442;49.932;11.592;2023-12-29T07:14:37;10.60;72.50
20568;DHT22;10442;49.932;11.592;2023-12-29T07:17:05;10.60;72.70
20568;DHT22;10442;49.932;11.592;2023-12-29T07:19:33;10.60;72.80
20568;DHT22;10442;49.932;11.592;2023-12-29T07:22:07;10.60;72.90
20568;DHT22;10442;49.932;11.592;2023-12-29T07:24:36;10.60;72.90
20568;DHT22;10442;49.932;11.592;2023-12-29T07:27:04;10.60;72.90
20568;DHT22;10442;49.932;11.592;2023-12-29T07:29:31;10.70;73.10
20568;DHT22;10442;49.932;11.592;2023-12-29T07:32:01;10.70;73.30
20568;DHT22;10442;49.932;11.592;2023-12-29T07:34:29;10.70;73.30
20568;DHT22;10442;49.932;11.592;2023-12-29T07:36:59;10.70;73.30
20568;DHT22;10442;49.932;11.592;2023-12-29T07:39:26;10.70;73.30
20568;DHT22;10442;49.932;11.592;2023-12-29T07:41:54;10.70;73.30
20568;DHT22;10442;49.932;11.592;2023-12-29T07:44:26;10.80;73.40
20568;DHT22;10442;49.932;11.592;2023-12-29T07:46:57;10.80;73.30
20568;DHT22;10442;49.932;11.592;2023-12-29T07:49:25;10.80;73.30
20568;DHT22;10442;49.932;11.592;2023-12-29T07:51:53;10.80;73.20
20568;DHT22;10442;49.932;11.592;2023-12-29T07:54:20;10.80;73.30
20568;DHT22;10442;49.932;11.592;2023-12-29T07:56:48;10.90;73.40
20568;DHT22;10442;49.932;11.592;2023-12-29T07:59:16;10.90;73.40
20568;DHT22;10442;49.932;11.592;2023-12-29T08:01:43;11.00;73.40
20568;DHT22;10442;49.932;11.592;2023-12-29T08:04:13;11.10;73.30
20568;DHT22;10442;49.932;11.592;2023-12-29T08:06:42;11.10;73.10
20568;DHT22;10442;49.932;11.592;2023-12-29T08:09:09;11.20;72.70
20568;DHT22;10442;49.932;11.592;2023-12-29T08:11:38;11.20;72.50
20568;DHT22;10442;49.932;11.592;2023-12-29T08:14:07;11.30;72.40
20568;DHT22;10442;49.932;11.592;2023-12-29T08:16:38;11.30;72.00
20568;DHT22;10442;49.932;11.592;2023-12-29T08:19:07;11.40;72.00
20568;DHT22;10442;49.932;11.592;2023-12-29T08:21:35;11.40;72.00
20568;DHT22;10442;49.932;11.592;2023-12-29T08:24:02;11.50;72.00
20568;DHT22;10442;49.932;11.592;2023-12-29T08:26:31;11.60;71.80
20568;DHT22;10442;49.932;11.592;2023-12-29T08:29:00;11.70;71.10
20568;DHT22;10442;49.932;11.592;2023-12-29T08:31:28;11.70;71.20
20568;DHT22;10442;49.932;11.592;2023-12-29T08:33:57;11.80;71.00
20568;DHT22;10442;49.932;11.592;2023-12-29T08:36:26;11.90;70.30
20568;DHT22;10442;49.932;11.592;2023-12-29T08:38:55;11.90;70.40
20568;DHT22;10442;49.932;11.592;2023-12-29T08:41:25;12.10;70.20
20568;DHT22;10442;49.932;11.592;2023-12-29T08:43:53;12.10;70.00
20568;DHT22;10442;49.932;11.592;2023-12-29T08:46:22;12.20;69.80
20568;DHT22;10442;49.932;11.592;2023-12-29T08:48:51;12.20;69.70
20568;DHT22;10442;49.932;11.592;2023-12-29T08:51:19;12.20;69.50
20568;DHT22;10442;49.932;11.592;2023-12-29T08:53:46;12.30;69.30
20568;DHT22;10442;49.932;11.592;2023-12-29T08:56:14;12.30;69.30
20568;DHT22;10442;49.932;11.592;2023-12-29T08:58:43;12.40;69.40
20568;DHT22;10442;49.932;11.592;2023-12-29T09:01:10;12.40;69.00
20568;DHT22;10442;49.932;11.592;2023-12-29T09:03:39;12.40;68.90
20568;DHT22;10442;49.932;11.592;2023-12-29T09:06:08;12.50;68.90
20568;DHT22;10442;49.932;11.592;2023-12-29T09:08:36;12.50;68.90
20568;DHT22;10442;49.932;11.592;2023-12-29T09:11:04;12.60;68.80
20568;DHT22;10442;49.932;11.592;2023-12-29T09:13:33;12.60;68.70
20568;DHT22;10442;49.932;11.592;2023-12-29T09:16:01;12.70;68.80
20568;DHT22;10442;49.932;11.592;2023-12-29T09:18:28;12.70;68.50
20568;DHT22;10442;49.932;11.592;2023-12-29T09:20:56;12.80;68.30
20568;DHT22;10442;49.932;11.592;2023-12-29T09:23:24;12.90;68.40
20568;DHT22;10442;49.932;11.592;2023-12-29T09:25:52;12.90;67.80
20568;DHT22;10442;49.932;11.592;2023-12-29T09:28:20;12.90;67.60
20568;DHT22;10442;49.932;11.592;2023-12-29T09:30:48;12.90;67.70
20568;DHT22;10442;49.932;11.592;2023-12-29T09:33:16;12.80;67.30
20568;DHT22;10442;49.932;11.592;2023-12-29T09:35:44;12.70;67.50
20568;DHT22;10442;49.932;11.592;2023-12-29T09:38:11;12.70;67.90
20568;DHT22;10442;49.932;11.592;2023-12-29T09:40:39;12.80;68.20
20568;DHT22;10442;49.932;11.592;2023-12-29T09:43:09;12.80;68.10
20568;DHT22;10442;49.932;11.592;2023-12-29T09:45:37;12.80;68.10
20568;DHT22;10442;49.932;11.592;2023-12-29T09:48:08;12.80;67.90
20568;DHT22;10442;49.932;11.592;2023-12-29T09:50:39;12.90;68.00
20568;DHT22;10442;49.932;11.592;2023-12-29T09:53:10;12.90;67.80
20568;DHT22;10442;49.932;11.592;2023-12-29T09:55:40;12.90;67.50
20568;DHT22;10442;49.932;11.592;2023-12-29T09:58:10;12.90;67.50
20568;DHT22;10442;49.932;11.592;2023-12-29T10:00:42;13.00;67.30
20568;DHT22;10442;49.932;11.592;2023-12-29T10:03:10;13.00;67.50
20568;DHT22;10442;49.932;11.592;2023-12-29T10:05:37;13.10;66.90
20568;DHT22;10442;49.932;11.592;2023-12-29T10:08:05;13.10;66.70
20568;DHT22;10442;49.932;11.592;2023-12-29T10:10:38;13.20;66.80
20568;DHT22;10442;49.932;11.592;2023-12-29T10:13:09;13.20;66.50
20568;DHT22;10442;49.932;11.592;2023-12-29T10:15:42;13.20;66.30
20568;DHT22;10442;49.932;11.592;2023-12-29T10:21:17;13.30;65.80
20568;DHT22;10442;49.932;11.592;2023-12-29T10:26:16;13.40;64.70
20568;DHT22;10442;49.932;11.592;2023-12-29T10:28:47;13.40;64.90
20568;DHT22;10442;49.932;11.592;2023-12-29T10:31:15;13.50;64.40
20568;DHT22;10442;49.932;11.592;2023-12-29T10:33:43;13.50;65.00
20568;DHT22;10442;49.932;11.592;2023-12-29T10:36:12;13.50;64.20
20568;DHT22;10442;49.932;11.592;2023-12-29T10:38:40;13.50;64.10
20568;DHT22;10442;49.932;11.592;2023-12-29T10:41:16;13.60;64.10
20568;DHT22;10442;49.932;11.592;2023-12-29T10:43:45;13.60;64.20
20568;DHT22;10442;49.932;11.592;2023-12-29T10:46:19;13.60;63.70
20568;DHT22;10442;49.932;11.592;2023-12-29T10:48:52;13.70;63.50
20568;DHT22;10442;49.932;11.592;2023-12-29T10:51:26;13.70;63.20
20568;DHT22;10442;49.932;11.592;2023-12-29T10:53:55;13.70;62.80
20568;DHT22;10442;49.932;11.592;2023-12-29T10:56:24;13.80;63.20
20568;DHT22;10442;49.932;11.592;2023-12-29T10:59:03;13.80;62.90
20568;DHT22;10442;49.932;11.592;2023-12-29T11:01:33;13.90;62.40
20568;DHT22;10442;49.932;11.592;2023-12-29T11:04:05;14.00;62.40
20568;DHT22;10442;49.932;11.592;2023-12-29T11:06:43;14.00;62.10
20568;DHT22;10442;49.932;11.592;2023-12-29T11:09:14;14.10;62.30
20568;DHT22;10442;49.932;11.592;2023-12-29T11:12:03;14.20;61.80
20568;DHT22;10442;49.932;11.592;2023-12-29T11:14:32;14.20;62.00
20568;DHT22;10442;49.932;11.592;2023-12-29T11:17:00;14.30;61.50
20568;DHT22;10442;49.932;11.592;2023-12-29T11:19:30;14.30;61.80
20568;DHT22;10442;49.932;11.592;2023-12-29T11:22:00;14.40;62.20
20568;DHT22;10442;49.932;11.592;2023-12-29T11:24:29;14.40;61.60
20568;DHT22;10442;49.932;11.592;2023-12-29T11:27:07;14.50;61.50
20568;DHT22;10442;49.932;11.592;2023-12-29T11:29:35;14.60;61.90
20568;DHT22;10442;49.932;11.592;2023-12-29T11:32:06;14.60;61.70
20568;DHT22;10442;49.932;11.592;2023-12-29T11:34:42;14.70;61.50
20568;DHT22;10442;49.932;11.592;2023-12-29T11:40:36;14.70;61.20
20568;DHT22;10442;49.932;11.592;2023-12-29T11:43:16;14.70;61.00
20568;DHT22;10442;49.932;11.592;2023-12-29T11:45:44;14.70;61.10
20568;DHT22;10442;49.932;11.592;2023-12-29T11:51:42;14.50;61.00
20568;DHT22;10442;49.932;11.592;2023-12-29T11:54:24;14.40;61.00
20568;DHT22;10442;49.932;11.592;2023-12-29T11:56:54;14.30;62.00
20568;DHT22;10442;49.932;11.592;2023-12-29T11:59:23;14.30;61.80
20568;DHT22;10442;49.932;11.592;2023-12-29T12:01:55;14.30;62.10
20568;DHT22;10442;49.932;11.592;2023-12-29T12:04:43;14.30;61.60
20568;DHT22;10442;49.932;11.592;2023-12-29T12:07:17;14.20;62.00
20568;DHT22;10442;49.932;11.592;2023-12-29T12:13:00;14.10;61.90
20568;DHT22;10442;49.932;11.592;2023-12-29T12:15:32;14.10;62.30
20568;DHT22;10442;49.932;11.592;2023-12-29T12:18:02;14.10;62.10
20568;DHT22;10442;49.932;11.592;2023-12-29T12:20:38;14.00;62.40
20568;DHT22;10442;49.932;11.592;2023-12-29T12:23:11;14.00;62.60
20568;DHT22;10442;49.932;11.592;2023-12-29T12:25:42;14.00;62.60
20568;DHT22;10442;49.932;11.592;2023-12-29T12:28:10;13.90;62.70
20568;DHT22;10442;49.932;11.592;2023-12-29T12:30:40;13.90;63.10
20568;DHT22;10442;49.932;11.592;2023-12-29T12:33:08;13.90;63.30
20568;DHT22;10442;49.932;11.592;2023-12-29T12:35:39;13.90;63.50
20568;DHT22;10442;49.932;11.592;2023-12-29T12:38:13;13.80;63.30
20568;DHT22;10442;49.932;11.592;2023-12-29T12:40:42;13.90;63.40
20568;DHT22;10442;49.932;11.592;2023-12-29T12:43:14;13.90;63.40
20568;DHT22;10442;49.932;11.592;2023-12-29T12:45:55;13.90;63.30
20568;DHT22;10442;49.932;11.592;2023-12-29T12:48:35;13.90;63.10
20568;DHT22;10442;49.932;11.592;2023-12-29T12:51:05;13.90;63.10
20568;DHT22;10442;49.932;11.592;2023-12-29T12:53:34;13.90;63.20
20568;DHT22;10442;49.932;11.592;2023-12-29T12:56:06;13.90;62.90
20568;DHT22;10442;49.932;11.592;2023-12-29T12:58:35;13.90;62.80
20568;DHT22;10442;49.932;11.592;2023-12-29T13:01:04;13.90;62.80
20568;DHT22;10442;49.932;11.592;2023-12-29T13:03:37;13.90;63.00
20568;DHT22;10442;49.932;11.592;2023-12-29T13:06:07;13.90;63.00
20568;DHT22;10442;49.932;11.592;2023-12-29T13:08:36;13.90;62.90
20568;DHT22;10442;49.932;11.592;2023-12-29T13:11:10;14.00;63.20
20568;DHT22;10442;49.932;11.592;2023-12-29T13:13:42;14.00;62.90
20568;DHT22;10442;49.932;11.592;2023-12-29T13:16:11;14.00;62.90
20568;DHT22;10442;49.932;11.592;2023-12-29T13:18:43;14.00;62.70
20568;DHT22;10442;49.932;11.592;2023-12-29T13:21:18;13.90;62.90
20568;DHT22;10442;49.932;11.592;2023-12-29T13:23:47;13.90;62.90
20568;DHT22;10442;49.932;11.592;2023-12-29T13:26:18;13.90;62.90
20568;DHT22;10442;49.932;11.592;2023-12-29T13:28:47;13.90;62.70
20568;DHT22;10442;49.932;11.592;2023-12-29T13:31:15;13.80;62.90
20568;DHT22;10442;49.932;11.592;2023-12-29T13:33:56;13.80;62.90
20568;DHT22;10442;49.932;11.592;2023-12-29T13:39:12;13.70;63.00
20568;DHT22;10442;49.932;11.592;2023-12-29T13:41:44;13.70;63.20
20568;DHT22;10442;49.932;11.592;2023-12-29T13:44:14;13.70;63.00
20568;DHT22;10442;49.932;11.592;2023-12-29T13:46:43;13.70;62.80
20568;DHT22;10442;49.932;11.592;2023-12-29T13:49:10;13.60;62.90
20568;DHT22;10442;49.932;11.592;2023-12-29T13:51:39;13.60;62.90
20568;DHT22;10442;49.932;11.592;2023-12-29T13:54:08;13.60;62.90
20568;DHT22;10442;49.932;11.592;2023-12-29T13:56:37;13.60;62.90
20568;DHT22;10442;49.932;11.592;2023-12-29T13:59:05;13.60;62.80
20568;DHT22;10442;49.932;11.592;2023-12-29T14:01:36;13.60;63.10
20568;DHT22;10442;49.932;11.592;2023-12-29T14:04:07;13.60;62.90
20568;DHT22;10442;49.932;11.592;2023-12-29T14:06:39;13.60;62.70
20568;DHT22;10442;49.932;11.592;2023-12-29T14:09:14;13.60;62.50
20568;DHT22;10442;49.932;11.592;2023-12-29T14:11:45;13.50;62.50
20568;DHT22;10442;49.932;11.592;2023-12-29T14:14:13;13.50;62.40
20568;DHT22;10442;49.932;11.592;2023-12-29T14:16:41;13.50;62.40
20568;DHT22;10442;49.932;11.592;2023-12-29T14:19:14;13.50;62.60
20568;DHT22;10442;49.932;11.592;2023-12-29T14:21:42;13.50;62.20
20568;DHT22;10442;49.932;11.592;2023-12-29T14:24:13;13.50;62.10
20568;DHT22;10442;49.932;11.592;2023-12-29T14:29:20;13.50;62.30
20568;DHT22;10442;49.932;11.592;2023-12-29T14:31:49;13.50;62.40
20568;DHT22;10442;49.932;11.592;2023-12-29T14:34:22;13.50;62.50
20568;DHT22;10442;49.932;11.592;2023-12-29T14:36:50;13.50;62.50
20568;DHT22;10442;49.932;11.592;2023-12-29T14:39:17;13.50;62.50
20568;DHT22;10442;49.932;11.592;2023-12-29T14:41:45;13.50;62.50
20568;DHT22;10442;49.932;11.592;2023-12-29T14:44:13;13.50;62.60
20568;DHT22;10442;49.932;11.592;2023-12-29T14:46:41;13.40;62.60
20568;DHT22;10442;49.932;11.592;2023-12-29T14:49:08;13.50;62.60
20568;DHT22;10442;49.932;11.592;2023-12-29T14:51:37;13.40;62.40
20568;DHT22;10442;49.932;11.592;2023-12-29T14:54:04;13.40;62.60
20568;DHT22;10442;49.932;11.592;2023-12-29T14:56:32;13.40;62.60
20568;DHT22;10442;49.932;11.592;2023-12-29T14:59:00;13.40;62.60
20568;DHT22;10442;49.932;11.592;2023-12-29T15:01:30;13.40;62.60
20568;DHT22;10442;49.932;11.592;2023-12-29T15:03:58;13.40;62.50
20568;DHT22;10442;49.932;11.592;2023-12-29T15:06:26;13.40;62.60
20568;DHT22;10442;49.932;11.592;2023-12-29T15:08:55;13.40;62.50
20568;DHT22;10442;49.932;11.592;2023-12-29T15:11:23;13.40;62.20
20568;DHT22;10442;49.932;11.592;2023-12-29T15:13:51;13.40;62.50
20568;DHT22;10442;49.932;11.592;2023-12-29T15:16:18;13.40;62.50
20568;DHT22;10442;49.932;11.592;2023-12-29T15:18:48;13.40;62.50
20568;DHT22;10442;49.932;11.592;2023-12-29T15:21:16;13.40;62.40
20568;DHT22;10442;49.932;11.592;2023-12-29T15:23:44;13.40;62.40
20568;DHT22;10442;49.932;11.592;2023-12-29T15:26:13;13.30;62.40
20568;DHT22;10442;49.932;11.592;2023-12-29T15:28:42;13.30;62.50
20568;DHT22;10442;49.932;11.592;2023-12-29T15:31:11;13.30;62.60
20568;DHT22;10442;49.932;11.592;2023-12-29T15:33:42;13.30;62.80
20568;DHT22;10442;49.932;11.592;2023-12-29T15:36:14;13.30;62.80
20568;DHT22;10442;49.932;11.592;2023-12-29T15:38:47;13.20;62.80
20568;DHT22;10442;49.932;11.592;2023-12-29T15:41:15;13.20;62.90
20568;DHT22;10442;49.932;11.592;2023-12-29T15:43:42;13.20;63.00
20568;DHT22;10442;49.932;11.592;2023-12-29T15:48:43;13.10;63.10
20568;DHT22;10442;49.932;11.592;2023-12-29T15:51:11;13.10;63.20
20568;DHT22;10442;49.932;11.592;2023-12-29T15:53:41;13.00;63.20
20568;DHT22;10442;49.932;11.592;2023-12-29T15:56:18;12.90;63.30
20568;DHT22;10442;49.932;11.592;2023-12-29T15:58:48;12.90;63.50